CheckWX is a tool to help pilots better visualize weather data.  It is not intended as a substitute for an official pre-flight weather briefing.

04:01:32 UTC

KPBF TAF
Pine Bluff Regional Grider Field Airport
Pine Bluff, Arkansas, USA
KPBF 192330Z 2000/2024 VRB02KT P6SM SKC FM201400 13006KT P6SM SCT250 FM202100 14011KT P6SM SCT250

Nov-20@
00:00 UTC

Nov-20 @ 00:00 UTC

Nov-20@
14:00 UTC

Nov-20 @ 14:00 UTC

KPBF 192330Z 2000/2024 VRB02KT P6SM SKC
Wind
  • Variable at 2 KTS
Cloud Levels
  • Clear skies

Nov-20@
14:00 UTC

Nov-20 @ 14:00 UTC

Nov-20@
21:00 UTC

Nov-20 @ 21:00 UTC

FM201400 13006KT P6SM SCT250

From

From Standard forecast or significant change

Wind
  • 130° at 6 KTS
Cloud Levels
  • Scattered at 25,000' AGL

Nov-20@
21:00 UTC

Nov-20 @ 21:00 UTC

Nov-21@
00:00 UTC

Nov-21 @ 00:00 UTC

FM202100 14011KT P6SM SCT250

From

From Standard forecast or significant change

Wind
  • 140° at 11 KTS
Cloud Levels
  • Scattered at 25,000' AGL